Time;durP1;ratioP1;P1;durP2;ratioP2;P2;SDS_P1;SDS_P2;PMS_P1;PMS_P2;Temp;Humidity;BMP_temperature;BMP_pressure;BME280_temperature;BME280_humidity;BME280_pressure;Samples;Min_cycle;Max_cycle;Signal;HPM_P1;HPM_P2
2022/07/30 00:01:32;;;;;;;;;;;;;;;21.10;47.48;101693.16;5026295;28;19996;-86
2022/07/30 00:03:58;;;;;;;;;;;;;;;21.02;48.20;101685.63;5024227;28;20432;-87
2022/07/30 00:06:23;;;;;;;;;;;;;;;20.91;48.54;101690.91;5028018;28;20032;-86
2022/07/30 00:08:48;;;;;;;;;;;;;;;20.86;48.17;101687.69;5029090;28;19921;-86
2022/07/30 00:11:14;;;;;;;;;;;;;;;20.88;48.06;101683.03;5032354;28;20589;-86
2022/07/30 00:13:39;;;;;;;;;;;;;;;20.85;48.34;101684.13;5027493;28;19917;-86
2022/07/30 00:16:04;;;;;;;;;;;;;;;20.83;48.47;101687.88;5026297;28;19918;-86
2022/07/30 00:18:30;;;;;;;;;;;;;;;20.81;48.72;101685.31;5011593;28;19917;-86
2022/07/30 00:20:55;;;;;;;;;;;;;;;20.74;48.88;101685.84;5024836;28;19921;-86
2022/07/30 00:23:20;;;;;;;;;;;;;;;20.69;49.17;101682.59;5025638;28;19926;-86
2022/07/30 00:25:45;;;;;;;;;;;;;;;20.63;48.97;101675.84;5026743;28;19913;-86
2022/07/30 00:28:10;;;;;;;;;;;;;;;20.59;49.14;101669.81;5029230;28;20015;-86
2022/07/30 00:30:37;;;;;;;;;;;;;;;20.58;49.40;101677.97;5024299;28;19917;-86
2022/07/30 00:33:02;;;;;;;;;;;;;;;20.54;49.55;101673.78;5027047;28;20336;-86
2022/07/30 00:35:28;;;;;;;;;;;;;;;20.50;50.00;101680.34;5027843;28;19924;-85
2022/07/30 00:37:53;;;;;;;;;;;;;;;20.46;50.01;101676.94;5028015;28;19921;-86
2022/07/30 00:40:18;;;;;;;;;;;;;;;20.41;49.98;101678.25;5025973;28;20438;-86
2022/07/30 00:42:44;;;;;;;;;;;;;;;20.33;50.24;101673.38;5028367;28;19925;-85
2022/07/30 00:45:10;;;;;;;;;;;;;;;20.22;51.21;101676.81;5026824;28;20328;-86
2022/07/30 00:47:36;;;;;;;;;;;;;;;20.13;50.75;101674.72;5027638;28;19921;-86
2022/07/30 00:50:03;;;;;;;;;;;;;;;20.09;51.48;101681.25;5025616;28;19924;-86
2022/07/30 00:52:29;;;;;;;;;;;;;;;20.04;53.72;101686.09;5023480;28;19933;-85
2022/07/30 00:54:55;;;;;;;;;;;;;;;19.97;51.64;101679.41;5026631;28;20398;-85
2022/07/30 00:57:20;;;;;;;;;;;;;;;19.97;51.21;101679.41;5027010;28;19925;-86
2022/07/30 00:59:45;;;;;;;;;;;;;;;19.81;52.31;101680.41;5028658;28;19928;-86
2022/07/30 01:02:11;;;;;;;;;;;;;;;19.78;53.27;101674.41;5003800;28;20119;-86
2022/07/30 01:04:37;;;;;;;;;;;;;;;19.71;52.86;101679.28;5024166;28;19922;-86
2022/07/30 01:07:02;;;;;;;;;;;;;;;19.75;51.99;101677.28;5025215;28;19926;-86
2022/07/30 01:09:27;;;;;;;;;;;;;;;19.74;51.87;101681.78;5028056;28;19967;-86
2022/07/30 01:11:52;;;;;;;;;;;;;;;19.71;52.42;101679.28;5026851;28;20308;-86
2022/07/30 01:14:18;;;;;;;;;;;;;;;19.67;52.51;101669.72;5025066;28;19968;-86
2022/07/30 01:16:43;;;;;;;;;;;;;;;19.66;52.51;101669.81;5027134;28;20265;-86
2022/07/30 01:22:02;;;;;;;;;;;;;;;19.52;53.14;101668.88;5025926;28;19943;-86
2022/07/30 01:24:38;;;;;;;;;;;;;;;19.49;53.06;101665.50;5027621;28;19941;-86
2022/07/30 01:27:05;;;;;;;;;;;;;;;19.46;52.58;101661.22;5028035;28;20009;-85
2022/07/30 01:29:31;;;;;;;;;;;;;;;19.42;53.27;101664.19;5026901;28;19917;-86
2022/07/30 01:31:58;;;;;;;;;;;;;;;19.41;52.90;101657.13;5026750;28;19921;-86
2022/07/30 01:34:26;;;;;;;;;;;;;;;19.34;52.79;101657.50;5025579;28;19917;-86
2022/07/30 01:36:51;;;;;;;;;;;;;;;19.34;53.44;101668.22;5021835;28;19940;-86
2022/07/30 01:39:18;;;;;;;;;;;;;;;19.31;53.48;101662.22;5006431;28;20376;-86
2022/07/30 01:41:44;;;;;;;;;;;;;;;19.20;53.92;101670.06;5007506;28;20333;-86
2022/07/30 01:44:10;;;;;;;;;;;;;;;19.05;53.57;101667.38;5004510;28;19917;-86
2022/07/30 01:46:36;;;;;;;;;;;;;;;18.99;54.26;101664.25;5008667;28;19929;-86
2022/07/30 01:49:01;;;;;;;;;;;;;;;18.98;54.01;101662.50;5005380;28;19945;-86
2022/07/30 01:51:27;;;;;;;;;;;;;;;18.98;54.50;101665.16;5001647;28;20024;-86
2022/07/30 01:53:52;;;;;;;;;;;;;;;18.95;54.31;101668.06;5005976;28;20383;-86
2022/07/30 01:56:20;;;;;;;;;;;;;;;18.92;54.78;101674.47;5007946;28;19970;-86
2022/07/30 01:58:47;;;;;;;;;;;;;;;18.92;54.24;101670.91;5006163;28;19913;-86
2022/07/30 02:01:13;;;;;;;;;;;;;;;18.92;55.76;101670.91;5002050;28;20400;-85
2022/07/30 02:03:38;;;;;;;;;;;;;;;18.72;54.84;101675.69;5004874;28;19926;-86
2022/07/30 02:06:06;;;;;;;;;;;;;;;18.71;55.00;101675.78;5004378;28;20378;-85
2022/07/30 02:08:40;;;;;;;;;;;;;;;18.64;54.65;101680.59;5001632;28;19936;-85
2022/07/30 02:11:14;;;;;;;;;;;;;;;18.60;55.56;101682.63;5021744;28;19937;-85
2022/07/30 02:13:50;;;;;;;;;;;;;;;18.59;54.81;101683.56;5009836;28;19917;-85
2022/07/30 02:16:18;;;;;;;;;;;;;;;18.60;55.03;101684.44;5007628;28;19968;-86
2022/07/30 02:19:01;;;;;;;;;;;;;;;18.50;55.76;101680.59;5004660;28;19929;-86
2022/07/30 02:21:30;;;;;;;;;;;;;;;18.41;55.66;101671.28;5005435;28;19921;-85
2022/07/30 02:23:56;;;;;;;;;;;;;;;18.43;55.53;101673.88;5010931;28;19974;-86
2022/07/30 02:26:23;;;;;;;;;;;;;;;18.45;55.35;101675.50;5008399;28;19924;-86
2022/07/30 02:28:51;;;;;;;;;;;;;;;18.47;55.18;101681.66;5002999;28;19922;-86
2022/07/30 02:31:20;;;;;;;;;;;;;;;18.33;57.35;101666.41;5004679;28;19925;-86
2022/07/30 02:33:48;;;;;;;;;;;;;;;18.23;55.42;101672.38;5004255;28;20055;-86
2022/07/30 02:36:14;;;;;;;;;;;;;;;18.20;57.45;101678.78;5003475;28;19918;-86
2022/07/30 02:38:40;;;;;;;;;;;;;;;18.15;56.90;101680.88;5009661;28;19922;-85
2022/07/30 02:41:06;;;;;;;;;;;;;;;17.99;57.35;101680.03;5007181;28;19943;-86
2022/07/30 02:43:33;;;;;;;;;;;;;;;18.03;56.60;101677.09;5021526;28;20063;-85
2022/07/30 02:45:59;;;;;;;;;;;;;;;17.97;56.42;101679.25;5002844;28;19925;-85
2022/07/30 02:48:26;;;;;;;;;;;;;;;17.96;56.72;101680.22;5024918;28;19921;-85
2022/07/30 02:50:52;;;;;;;;;;;;;;;17.95;56.33;101678.47;5007057;28;20169;-86
2022/07/30 02:53:18;;;;;;;;;;;;;;;17.85;56.76;101679.00;5003485;28;20428;-86
2022/07/30 02:55:44;;;;;;;;;;;;;;;17.77;57.24;101675.06;5023736;28;19974;-85
2022/07/30 02:58:10;;;;;;;;;;;;;;;17.66;58.88;101677.44;5007729;28;19968;-86
2022/07/30 03:00:35;;;;;;;;;;;;;;;17.48;60.24;101682.84;5006522;28;20308;-87
2022/07/30 03:03:03;;;;;;;;;;;;;;;17.32;59.46;101676.66;5024070;28;20275;-85
2022/07/30 03:05:29;;;;;;;;;;;;;;;17.13;58.67;101684.81;5019059;28;19917;-86
2022/07/30 03:07:56;;;;;;;;;;;;;;;17.15;58.06;101692.72;5023844;28;20039;-86
2022/07/30 03:10:23;;;;;;;;;;;;;;;17.19;57.97;101689.81;5007823;28;20411;-86
2022/07/30 03:12:49;;;;;;;;;;;;;;;17.13;58.65;101687.47;5026246;28;20320;-86
2022/07/30 03:15:14;;;;;;;;;;;;;;;17.18;58.11;101689.91;5020571;28;19921;-86
2022/07/30 03:17:42;;;;;;;;;;;;;;;17.28;57.85;101694.66;5024651;28;19925;-87
2022/07/30 03:20:08;;;;;;;;;;;;;;;17.35;57.69;101689.84;5014131;28;19925;-86
2022/07/30 03:22:37;;;;;;;;;;;;;;;17.33;57.82;101697.94;5023178;28;20027;-86
2022/07/30 03:25:02;;;;;;;;;;;;;;;17.33;57.50;101702.41;5026138;28;19921;-86
2022/07/30 03:27:29;;;;;;;;;;;;;;;17.29;57.65;101693.69;5026691;28;19917;-86
2022/07/30 03:29:55;;;;;;;;;;;;;;;17.25;58.11;101697.50;5034952;28;19923;-87
2022/07/30 03:32:21;;;;;;;;;;;;;;;17.28;58.04;101696.47;5028756;28;20016;-85
2022/07/30 03:34:46;;;;;;;;;;;;;;;17.32;58.54;101685.53;5029752;28;20397;-85
2022/07/30 03:37:11;;;;;;;;;;;;;;;17.35;57.62;101681.84;5029089;28;20016;-86
2022/07/30 03:39:37;;;;;;;;;;;;;;;17.33;58.11;101684.56;5027220;28;20011;-87
2022/07/30 03:42:04;;;;;;;;;;;;;;;17.28;59.03;101686.63;5011693;28;20004;-86
2022/07/30 03:44:32;;;;;;;;;;;;;;;17.19;58.10;101692.47;5030923;28;19979;-86
2022/07/30 03:46:58;;;;;;;;;;;;;;;17.15;59.33;101690.91;5011238;28;19929;-86
2022/07/30 03:49:24;;;;;;;;;;;;;;;17.11;58.17;101692.03;5029914;28;19970;-86
2022/07/30 03:51:50;;;;;;;;;;;;;;;17.15;58.67;101692.72;5028926;28;20164;-86
2022/07/30 03:54:15;;;;;;;;;;;;;;;17.16;58.22;101695.34;5012271;28;19917;-86
2022/07/30 03:56:41;;;;;;;;;;;;;;;17.13;58.00;101708.00;5011876;28;20418;-86
2022/07/30 03:59:07;;;;;;;;;;;;;;;16.87;62.63;101706.69;5011880;28;20276;-86
2022/07/30 04:01:32;;;;;;;;;;;;;;;16.60;61.08;101701.84;5017494;28;19910;-86
2022/07/30 04:04:04;;;;;;;;;;;;;;;16.49;60.11;101712.19;5027827;28;19924;-87
2022/07/30 04:06:29;;;;;;;;;;;;;;;16.50;59.49;101712.09;5024207;28;20015;-86
2022/07/30 04:08:54;;;;;;;;;;;;;;;16.52;59.16;101712.91;5024670;28;20027;-86
2022/07/30 04:11:20;;;;;;;;;;;;;;;16.60;59.23;101709.84;5028216;28;20305;-86
2022/07/30 04:13:45;;;;;;;;;;;;;;;16.69;58.35;101719.16;5010569;28;19963;-86
2022/07/30 04:16:17;;;;;;;;;;;;;;;16.77;58.51;101715.19;5012182;28;19917;-86
2022/07/30 04:18:46;;;;;;;;;;;;;;;16.82;58.55;101721.16;5027000;28;19913;-86
2022/07/30 04:21:13;;;;;;;;;;;;;;;16.83;58.34;101714.88;5029577;28;20498;-86
2022/07/30 04:23:39;;;;;;;;;;;;;;;16.80;58.62;101723.06;5028527;28;19952;-85
2022/07/30 04:26:05;;;;;;;;;;;;;;;16.63;58.74;101723.03;5004351;28;20412;-86
2022/07/30 04:28:31;;;;;;;;;;;;;;;16.56;58.93;101719.81;5024611;28;20372;-87
2022/07/30 04:30:57;;;;;;;;;;;;;;;16.67;59.21;101723.72;5026692;28;19944;-86
2022/07/30 04:33:22;;;;;;;;;;;;;;;16.70;59.05;101724.44;5028501;28;20055;-86
2022/07/30 04:35:47;;;;;;;;;;;;;;;16.77;58.77;101735.69;5025584;28;19924;-86
2022/07/30 04:38:13;;;;;;;;;;;;;;;16.76;59.18;101729.50;5019005;28;19917;-86
2022/07/30 04:40:38;;;;;;;;;;;;;;;16.73;59.70;101736.78;5025732;28;20548;-86
2022/07/30 04:43:04;;;;;;;;;;;;;;;16.72;59.08;101740.41;5024836;28;20303;-85
2022/07/30 04:45:29;;;;;;;;;;;;;;;16.77;60.60;101747.22;5026863;28;19922;-86
2022/07/30 04:47:54;;;;;;;;;;;;;;;16.86;58.67;101753.06;5028155;28;19921;-86
2022/07/30 04:50:21;;;;;;;;;;;;;;;16.89;59.61;101750.22;5034073;28;19944;-85
2022/07/30 04:52:46;;;;;;;;;;;;;;;16.94;59.05;101745.50;5027207;28;19970;-86
2022/07/30 04:55:12;;;;;;;;;;;;;;;16.98;58.75;101749.75;5030298;28;20353;-86
2022/07/30 04:57:38;;;;;;;;;;;;;;;17.02;59.84;101745.94;5027072;28;19921;-86
2022/07/30 05:00:05;;;;;;;;;;;;;;;17.06;59.52;101752.88;5028343;28;20320;-85
2022/07/30 05:02:32;;;;;;;;;;;;;;;17.11;58.33;101761.50;5024572;28;19960;-86
2022/07/30 05:04:57;;;;;;;;;;;;;;;17.14;59.80;101755.13;5005860;28;19967;-86
2022/07/30 05:07:24;;;;;;;;;;;;;;;17.10;59.84;101759.78;5028186;28;19921;-86
2022/07/30 05:09:49;;;;;;;;;;;;;;;17.07;59.48;101760.81;5024808;28;19964;-86
2022/07/30 05:12:15;;;;;;;;;;;;;;;17.09;59.41;101758.06;5023709;28;20375;-85
2022/07/30 05:14:40;;;;;;;;;;;;;;;17.17;59.37;101758.53;5029201;28;19917;-86
2022/07/30 05:17:06;;;;;;;;;;;;;;;17.17;62.78;101761.19;5023781;28;19925;-86
2022/07/30 05:19:31;;;;;;;;;;;;;;;17.16;61.67;101766.59;5018549;28;19917;-86
2022/07/30 05:21:56;;;;;;;;;;;;;;;17.20;59.93;101755.66;5028098;28;19923;-86
2022/07/30 05:24:21;;;;;;;;;;;;;;;17.19;62.35;101764.63;5023732;28;20327;-86
2022/07/30 05:26:46;;;;;;;;;;;;;;;17.18;62.74;101762.91;5022560;28;19924;-86
2022/07/30 05:29:12;;;;;;;;;;;;;;;17.19;62.38;101761.09;5011038;28;20000;-85
2022/07/30 05:31:37;;;;;;;;;;;;;;;17.29;60.70;101767.69;5026907;28;19932;-86
2022/07/30 05:34:02;;;;;;;;;;;;;;;17.38;63.37;101767.19;5026503;28;20012;-86
2022/07/30 05:36:27;;;;;;;;;;;;;;;17.39;61.61;101765.38;5026040;28;19975;-86
2022/07/30 05:38:52;;;;;;;;;;;;;;;17.45;61.35;101767.72;5016252;28;19916;-86
2022/07/30 05:41:18;;;;;;;;;;;;;;;17.49;60.65;101775.50;5022143;28;20402;-86
2022/07/30 05:43:43;;;;;;;;;;;;;;;17.58;61.72;101776.81;5008772;28;19952;-86
2022/07/30 05:46:08;;;;;;;;;;;;;;;17.66;59.82;101771.91;5024892;28;19921;-86
2022/07/30 05:48:35;;;;;;;;;;;;;;;17.73;62.42;101778.69;5010309;28;19964;-86
2022/07/30 05:51:01;;;;;;;;;;;;;;;17.74;60.14;101782.22;5025276;28;20007;-86
2022/07/30 05:53:26;;;;;;;;;;;;;;;17.78;61.70;101781.97;5027109;28;20008;-86
2022/07/30 05:55:51;;;;;;;;;;;;;;;17.82;62.46;101769.28;5007661;28;19921;-86
2022/07/30 05:58:17;;;;;;;;;;;;;;;17.88;61.96;101779.63;5009206;28;19945;-86
2022/07/30 06:00:42;;;;;;;;;;;;;;;17.96;61.78;101779.22;5007625;28;19921;-86
2022/07/30 06:03:07;;;;;;;;;;;;;;;18.03;62.74;101783.25;5028251;28;19948;-86
2022/07/30 06:05:32;;;;;;;;;;;;;;;18.09;62.76;101785.56;5025206;28;19921;-86
2022/07/30 06:07:58;;;;;;;;;;;;;;;18.13;63.20;101780.91;5021492;28;20027;-87
2022/07/30 06:10:23;;;;;;;;;;;;;;;18.09;61.15;101783.78;5027747;28;19924;-86
2022/07/30 06:12:48;;;;;;;;;;;;;;;18.11;62.03;101786.38;5008358;28;19975;-86
2022/07/30 06:15:14;;;;;;;;;;;;;;;18.17;63.58;101780.66;5022754;28;20281;-87
2022/07/30 06:17:40;;;;;;;;;;;;;;;18.25;62.74;101783.78;5011111;28;21660;-86
2022/07/30 06:20:05;;;;;;;;;;;;;;;18.33;61.09;101789.56;5008174;28;20418;-86
2022/07/30 06:22:31;;;;;;;;;;;;;;;18.40;61.60;101797.22;5023523;28;19944;-86
2022/07/30 06:24:56;;;;;;;;;;;;;;;18.43;61.35;101794.38;5009388;28;19913;-86
2022/07/30 06:27:21;;;;;;;;;;;;;;;18.49;61.26;101796.69;5003832;28;19917;-86
2022/07/30 06:29:46;;;;;;;;;;;;;;;18.49;62.50;101797.56;5025149;28;19913;-86
2022/07/30 06:32:11;;;;;;;;;;;;;;;18.48;61.48;101798.50;5025846;28;19921;-86
2022/07/30 06:34:37;;;;;;;;;;;;;;;18.51;61.58;101800.13;5025303;28;19924;-86
2022/07/30 06:37:02;;;;;;;;;;;;;;;18.56;61.26;101798.94;5003069;28;19925;-87
2022/07/30 06:39:27;;;;;;;;;;;;;;;18.64;62.12;101805.63;5023288;28;19921;-86
2022/07/30 06:41:52;;;;;;;;;;;;;;;18.72;64.62;101808.78;5024590;28;19957;-86
2022/07/30 06:44:18;;;;;;;;;;;;;;;18.86;61.36;101804.31;5022275;28;20930;-86
2022/07/30 06:46:43;;;;;;;;;;;;;;;19.05;64.56;101806.75;5028361;28;19917;-86
2022/07/30 06:49:08;;;;;;;;;;;;;;;19.17;62.46;101807.00;5024507;28;20305;-86
2022/07/30 06:51:33;;;;;;;;;;;;;;;19.21;60.89;101812.06;5020524;28;20060;-86
2022/07/30 06:53:58;;;;;;;;;;;;;;;19.26;60.68;101807.28;5026261;28;20269;-87
2022/07/30 06:56:23;;;;;;;;;;;;;;;19.34;59.97;101801.44;5026873;28;19925;-86
2022/07/30 06:58:49;;;;;;;;;;;;;;;19.49;62.31;101804.97;5024060;28;19932;-86
2022/07/30 07:01:14;;;;;;;;;;;;;;;19.74;61.63;101809.72;5024479;28;20385;-85
2022/07/30 07:03:39;;;;;;;;;;;;;;;19.92;62.11;101805.88;5031432;28;19928;-85
2022/07/30 07:06:04;;;;;;;;;;;;;;;20.03;59.47;101811.41;5026777;28;19936;-86
2022/07/30 07:08:30;;;;;;;;;;;;;;;20.16;60.62;101807.94;5028162;28;20424;-86
2022/07/30 07:10:55;;;;;;;;;;;;;;;20.41;61.22;101807.16;5025795;28;20029;-86
2022/07/30 07:13:21;;;;;;;;;;;;;;;20.71;57.98;101807.00;5027506;28;20000;-86
2022/07/30 07:15:46;;;;;;;;;;;;;;;20.75;59.42;101816.53;5026306;28;19968;-86
2022/07/30 07:18:11;;;;;;;;;;;;;;;20.96;59.17;101811.56;5031145;28;20014;-87
2022/07/30 07:20:37;;;;;;;;;;;;;;;21.11;57.50;101822.09;5029234;28;19925;-86
2022/07/30 07:23:02;;;;;;;;;;;;;;;21.09;56.68;101818.69;5013251;28;19956;-87
2022/07/30 07:25:27;;;;;;;;;;;;;;;21.11;56.87;101818.56;5026541;28;19916;-86
2022/07/30 07:27:52;;;;;;;;;;;;;;;21.06;56.75;101815.34;5028301;28;20135;-87
2022/07/30 07:30:17;;;;;;;;;;;;;;;20.95;56.78;101810.69;5010704;28;20280;-87
2022/07/30 07:32:43;;;;;;;;;;;;;;;20.84;56.79;101810.56;5013012;28;19928;-86
2022/07/30 07:35:08;;;;;;;;;;;;;;;20.72;56.84;101812.25;5029352;28;19924;-86
2022/07/30 07:37:33;;;;;;;;;;;;;;;20.72;57.14;101820.31;5011043;28;19924;-86
2022/07/30 07:39:59;;;;;;;;;;;;;;;20.81;56.91;101821.53;5030662;28;19925;-86
2022/07/30 07:42:24;;;;;;;;;;;;;;;20.82;56.95;101821.41;5029892;28;19913;-86
2022/07/30 07:44:49;;;;;;;;;;;;;;;21.18;57.74;101821.72;5021695;28;20356;-86
2022/07/30 07:47:14;;;;;;;;;;;;;;;21.84;56.21;101828.69;5025586;28;21125;-86
2022/07/30 07:49:39;;;;;;;;;;;;;;;22.48;53.72;101823.16;5009938;28;19917;-86
2022/07/30 07:52:05;;;;;;;;;;;;;;;22.92;52.54;101817.97;5024280;28;20012;-86
2022/07/30 07:54:30;;;;;;;;;;;;;;;23.36;51.39;101824.47;5027508;28;19939;-86
2022/07/30 07:56:55;;;;;;;;;;;;;;;23.75;50.44;101811.50;5012716;28;20392;-86
2022/07/30 07:59:20;;;;;;;;;;;;;;;24.18;50.20;101816.97;5030346;28;19921;-86
2022/07/30 08:01:45;;;;;;;;;;;;;;;24.56;49.51;101812.09;5026657;28;19928;-86
2022/07/30 08:04:11;;;;;;;;;;;;;;;24.74;48.43;101815.94;5027561;28;19931;-86
2022/07/30 08:06:36;;;;;;;;;;;;;;;24.79;48.78;101807.44;5021141;28;19948;-86
2022/07/30 08:09:01;;;;;;;;;;;;;;;24.74;48.54;101805.13;5025857;28;19923;-86
2022/07/30 08:11:27;;;;;;;;;;;;;;;24.59;48.32;101811.84;5018675;28;19921;-86
2022/07/30 08:13:52;;;;;;;;;;;;;;;24.45;48.09;101812.16;5022461;28;20012;-86
2022/07/30 08:16:17;;;;;;;;;;;;;;;24.79;46.66;101824.53;5029965;28;20373;-86
2022/07/30 08:18:42;;;;;;;;;;;;;;;25.01;45.58;101825.41;5025072;28;19933;-86
2022/07/30 08:21:08;;;;;;;;;;;;;;;25.34;45.98;101819.81;5025054;28;19916;-86
2022/07/30 08:23:33;;;;;;;;;;;;;;;25.93;45.26;101813.72;5029325;28;19960;-86
2022/07/30 08:25:58;;;;;;;;;;;;;;;26.13;44.59;101813.75;5025539;28;19928;-86
2022/07/30 08:28:24;;;;;;;;;;;;;;;26.62;43.65;101812.84;5026027;28;19979;-86
2022/07/30 08:30:49;;;;;;;;;;;;;;;27.14;42.75;101816.13;5028195;28;19944;-86
2022/07/30 08:33:14;;;;;;;;;;;;;;;27.62;41.59;101809.69;5029637;28;20390;-87
2022/07/30 08:35:40;;;;;;;;;;;;;;;28.05;40.07;101815.50;5028834;28;19932;-86
2022/07/30 08:38:05;;;;;;;;;;;;;;;28.08;40.39;101816.06;5028561;28;19948;-86
2022/07/30 08:40:32;;;;;;;;;;;;;;;28.33;39.78;101813.63;5021171;28;20039;-87
2022/07/30 08:42:57;;;;;;;;;;;;;;;28.51;39.22;101819.97;5030967;28;20345;-87
2022/07/30 08:45:23;;;;;;;;;;;;;;;28.95;38.04;101814.59;5008498;28;20043;-87
2022/07/30 08:47:48;;;;;;;;;;;;;;;29.22;37.34;101813.59;5026538;28;19971;-87
2022/07/30 08:50:14;;;;;;;;;;;;;;;29.29;37.94;101830.16;5026306;28;19999;-87
2022/07/30 08:52:39;;;;;;;;;;;;;;;29.48;36.53;101822.63;5024861;28;19965;-87
2022/07/30 08:55:05;;;;;;;;;;;;;;;29.72;36.29;101821.94;5023485;28;19921;-87
2022/07/30 08:57:32;;;;;;;;;;;;;;;30.23;34.90;101828.28;5027681;28;19917;-87
2022/07/30 08:59:57;;;;;;;;;;;;;;;30.21;33.83;101821.28;5011441;28;19925;-87
2022/07/30 09:02:23;;;;;;;;;;;;;;;29.79;34.88;101819.38;5020179;28;20635;-87
2022/07/30 09:04:48;;;;;;;;;;;;;;;30.19;34.13;101826.06;5028312;28;19917;-87
2022/07/30 09:07:13;;;;;;;;;;;;;;;30.59;33.39;101819.84;5029946;28;19924;-87
2022/07/30 09:09:39;;;;;;;;;;;;;;;30.59;32.49;101810.75;5027699;28;20328;-87
2022/07/30 09:12:24;;;;;;;;;;;;;;;30.84;33.22;101809.78;5028486;28;19921;-87
2022/07/30 09:15:15;;;;;;;;;;;;;;;30.68;31.73;101820.66;5022562;28;20020;-87
2022/07/30 09:17:53;;;;;;;;;;;;;;;30.93;31.89;101822.44;5026040;28;19921;-87
2022/07/30 09:20:19;;;;;;;;;;;;;;;31.15;31.11;101820.00;5028026;28;20411;-87
2022/07/30 09:22:46;;;;;;;;;;;;;;;31.29;30.57;101821.19;5028560;28;19917;-87
2022/07/30 09:25:11;;;;;;;;;;;;;;;31.16;31.48;101822.56;5012820;28;19964;-86
2022/07/30 09:27:47;;;;;;;;;;;;;;;31.29;31.34;101830.28;5009272;28;20443;-87
2022/07/30 09:30:12;;;;;;;;;;;;;;;31.54;31.86;101833.78;5019647;28;20754;-86
2022/07/30 09:32:48;;;;;;;;;;;;;;;31.49;31.65;101833.47;5005947;28;19921;-87
2022/07/30 09:35:14;;;;;;;;;;;;;;;31.09;31.68;101835.22;5006460;28;20075;-87
2022/07/30 09:37:39;;;;;;;;;;;;;;;30.66;31.42;101825.44;5024397;28;19917;-87
2022/07/30 09:40:17;;;;;;;;;;;;;;;30.34;32.05;101829.84;5018927;28;19991;-86
2022/07/30 09:42:42;;;;;;;;;;;;;;;30.11;32.62;101837.75;5004911;28;19921;-87
2022/07/30 09:45:13;;;;;;;;;;;;;;;30.01;32.38;101828.00;5022040;28;19925;-87
2022/07/30 09:47:40;;;;;;;;;;;;;;;29.81;33.32;101831.00;5008010;28;20368;-87
2022/07/30 09:50:06;;;;;;;;;;;;;;;29.56;32.34;101834.59;5022174;28;19928;-87
2022/07/30 09:52:31;;;;;;;;;;;;;;;29.30;33.56;101816.38;5027167;28;19925;-86
2022/07/30 09:54:56;;;;;;;;;;;;;;;29.36;34.39;101823.06;5022211;28;19932;-87
2022/07/30 09:57:22;;;;;;;;;;;;;;;29.49;33.64;101824.31;5026814;28;19917;-87
2022/07/30 09:59:47;;;;;;;;;;;;;;;29.51;33.85;101820.56;5022338;28;20011;-87
2022/07/30 10:02:12;;;;;;;;;;;;;;;29.40;33.10;101824.44;5025494;28;19956;-86
2022/07/30 10:04:37;;;;;;;;;;;;;;;29.37;32.51;101816.56;5024510;28;20307;-87
2022/07/30 10:07:02;;;;;;;;;;;;;;;29.40;33.29;101819.84;5028071;28;19925;-86
2022/07/30 10:09:29;;;;;;;;;;;;;;;29.54;32.67;101809.38;5026310;28;19928;-86
2022/07/30 10:12:04;;;;;;;;;;;;;;;29.39;33.19;101809.13;5008532;28;19924;-86
2022/07/30 10:14:34;;;;;;;;;;;;;;;29.50;32.69;101814.28;5028441;28;19924;-87
2022/07/30 10:16:59;;;;;;;;;;;;;;;29.82;32.35;101810.88;5018358;28;19918;-86
2022/07/30 10:19:25;;;;;;;;;;;;;;;30.01;32.69;101806.19;5027081;28;19924;-86
2022/07/30 10:21:52;;;;;;;;;;;;;;;30.24;32.59;101808.16;5025791;28;19917;-86
2022/07/30 10:24:17;;;;;;;;;;;;;;;29.60;30.95;101803.28;5025627;28;19925;-86
2022/07/30 10:26:43;;;;;;;;;;;;;;;29.45;32.73;101806.59;5024074;28;20347;-86
2022/07/30 10:29:08;;;;;;;;;;;;;;;29.93;32.54;101812.47;5021451;28;19951;-86
2022/07/30 10:31:34;;;;;;;;;;;;;;;30.21;31.95;101811.22;5023486;28;19974;-86
2022/07/30 10:33:59;;;;;;;;;;;;;;;30.22;31.30;101799.31;5026003;28;20004;-86
2022/07/30 10:36:25;;;;;;;;;;;;;;;30.43;30.95;101798.81;5005940;28;19917;-86
2022/07/30 10:38:50;;;;;;;;;;;;;;;30.17;31.49;101804.41;5006655;28;19918;-87
2022/07/30 10:41:16;;;;;;;;;;;;;;;30.32;32.57;101799.16;5025310;28;19917;-86
2022/07/30 10:43:54;;;;;;;;;;;;;;;30.66;30.92;101806.34;5008294;28;19920;-87
2022/07/30 10:46:19;;;;;;;;;;;;;;;30.76;29.81;101804.31;5026935;28;19918;-86
2022/07/30 10:48:44;;;;;;;;;;;;;;;30.31;31.90;101808.38;5024975;28;19917;-87
2022/07/30 10:51:10;;;;;;;;;;;;;;;29.80;31.88;101814.78;5028496;28;20003;-86
2022/07/30 10:53:38;;;;;;;;;;;;;;;30.08;32.45;101807.22;5035483;28;19921;-87
2022/07/30 10:56:13;;;;;;;;;;;;;;;30.56;31.49;101814.69;5021981;28;20019;-86
2022/07/30 10:58:58;;;;;;;;;;;;;;;30.71;31.39;101817.63;5010463;28;19913;-86
2022/07/30 11:01:23;;;;;;;;;;;;;;;30.79;30.53;101812.19;5022199;28;20880;-86
2022/07/30 11:04:07;;;;;;;;;;;;;;;31.18;30.89;101806.84;5015567;28;20627;-87
2022/07/30 11:06:32;;;;;;;;;;;;;;;31.54;30.42;101800.16;5017861;28;19936;-87
2022/07/30 11:08:58;;;;;;;;;;;;;;;31.62;30.16;101798.25;5028379;28;19920;-87
2022/07/30 11:11:23;;;;;;;;;;;;;;;31.85;29.58;101803.81;5007370;28;19925;-86
2022/07/30 11:13:53;;;;;;;;;;;;;;;31.77;29.96;101805.69;5018503;28;20396;-86
2022/07/30 11:16:19;;;;;;;;;;;;;;;31.57;29.60;101800.66;5020295;28;19925;-86
2022/07/30 11:19:03;;;;;;;;;;;;;;;31.53;29.74;101806.66;5020154;28;19928;-86
2022/07/30 11:21:28;;;;;;;;;;;;;;;31.89;30.24;101805.13;5023537;28;19924;-86
2022/07/30 11:23:53;;;;;;;;;;;;;;;32.05;29.58;101804.22;5022708;28;20342;-86
2022/07/30 11:26:37;;;;;;;;;;;;;;;32.20;30.00;101799.69;5006801;28;19971;-86
2022/07/30 11:29:02;;;;;;;;;;;;;;;32.31;29.21;101801.13;5022419;28;19979;-86
2022/07/30 11:31:32;;;;;;;;;;;;;;;32.14;28.45;101805.03;5024693;28;19921;-86
2022/07/30 11:34:16;;;;;;;;;;;;;;;32.13;29.01;101795.97;5000023;28;20258;-86
2022/07/30 11:37:00;;;;;;;;;;;;;;;32.41;29.13;101789.97;5022912;28;19936;-86
2022/07/30 11:39:45;;;;;;;;;;;;;;;32.48;28.62;101788.22;5022650;28;20398;-86
2022/07/30 11:42:24;;;;;;;;;;;;;;;32.70;28.57;101781.91;5016919;28;19921;-87
2022/07/30 11:44:49;;;;;;;;;;;;;;;33.34;28.54;101788.81;5002590;28;19932;-86
2022/07/30 11:47:15;;;;;;;;;;;;;;;33.51;27.61;101787.63;5024898;28;19921;-86
2022/07/30 11:49:40;;;;;;;;;;;;;;;33.62;27.08;101794.53;5022424;28;20265;-86
2022/07/30 11:52:07;;;;;;;;;;;;;;;33.42;27.49;101792.31;5024607;28;19933;-86
2022/07/30 11:54:32;;;;;;;;;;;;;;;33.44;26.81;101786.72;5018789;28;19925;-86
2022/07/30 11:56:57;;;;;;;;;;;;;;;33.78;25.21;101785.25;5009794;28;20363;-86
2022/07/30 11:59:22;;;;;;;;;;;;;;;33.48;27.16;101796.22;5023272;28;19917;-86
2022/07/30 12:01:48;;;;;;;;;;;;;;;33.21;27.56;101792.25;5025709;28;19975;-86
2022/07/30 12:04:14;;;;;;;;;;;;;;;32.71;27.69;101788.22;5021794;28;21570;-86
2022/07/30 12:06:43;;;;;;;;;;;;;;;32.61;28.57;101787.63;5023073;28;19917;-86
2022/07/30 12:09:08;;;;;;;;;;;;;;;32.66;28.35;101786.03;5026074;28;20368;-86
2022/07/30 12:11:34;;;;;;;;;;;;;;;32.47;28.53;101790.13;5029282;28;19923;-86
2022/07/30 12:14:00;;;;;;;;;;;;;;;32.41;28.47;101781.78;5020487;28;19971;-87
2022/07/30 12:16:26;;;;;;;;;;;;;;;32.68;28.17;101788.59;5021580;28;19929;-87
2022/07/30 12:18:52;;;;;;;;;;;;;;;32.78;28.35;101794.66;5021814;28;20367;-87
2022/07/30 12:21:18;;;;;;;;;;;;;;;32.86;28.23;101785.50;5007646;28;19921;-87
2022/07/30 12:24:15;;;;;;;;;;;;;;;32.97;28.17;101785.97;5027814;28;19925;-87
2022/07/30 12:26:40;;;;;;;;;;;;;;;32.99;28.17;101785.78;4989191;28;20024;-87
2022/07/30 12:29:09;;;;;;;;;;;;;;;32.90;28.24;101793.22;5023019;28;20024;-86
2022/07/30 12:31:34;;;;;;;;;;;;;;;32.58;28.37;101787.97;5023757;28;19920;-87
2022/07/30 12:33:59;;;;;;;;;;;;;;;32.46;27.73;101780.22;5025400;28;20399;-87
2022/07/30 12:36:29;;;;;;;;;;;;;;;32.17;28.38;101786.34;5027327;28;19917;-87